Time;durP1;ratioP1;P1;durP2;ratioP2;P2;SDS_P1;SDS_P2;PMS_P1;PMS_P2;Temp;Humidity;BMP_temperature;BMP_pressure;BME280_temperature;BME280_humidity;BME280_pressure;Samples;Min_cycle;Max_cycle;Signal;HPM_P1;HPM_P2
2022/06/29 00:00:19;;;;;;;1.52;1.33;;;21.00;72.80;;;;;;6218711;23;20015;-92
2022/06/29 00:02:47;;;;;;;4.60;1.55;;;21.00;73.00;;;;;;6245216;23;20008;-94
2022/06/29 00:05:15;;;;;;;2.45;1.50;;;21.00;73.00;;;;;;6245588;23;20008;-94
2022/06/29 00:07:41;;;;;;;1.40;1.30;;;21.10;73.00;;;;;;6193146;23;20008;-94
2022/06/29 00:10:09;;;;;;;1.80;1.60;;;21.10;73.30;;;;;;6244738;23;20032;-93
2022/06/29 00:12:35;;;;;;;2.35;1.30;;;21.00;73.10;;;;;;6243969;23;20004;-93
2022/06/29 00:15:04;;;;;;;1.70;1.05;;;21.00;73.40;;;;;;6218293;23;19999;-93
2022/06/29 00:17:31;;;;;;;1.38;1.08;;;21.10;73.40;;;;;;6218264;23;20004;-94
2022/06/29 00:19:58;;;;;;;1.85;1.40;;;21.10;73.40;;;;;;6245174;23;20004;-92
2022/06/29 00:22:25;;;;;;;2.85;1.17;;;21.10;73.50;;;;;;6245146;23;20004;-93
2022/06/29 00:24:51;;;;;;;5.18;1.35;;;21.10;73.50;;;;;;6219175;23;20506;-94
2022/06/29 00:27:17;;;;;;;1.52;1.30;;;21.10;73.70;;;;;;6218215;23;20016;-93
2022/06/29 00:29:43;;;;;;;3.03;1.25;;;21.00;73.70;;;;;;6243148;23;20012;-93
2022/06/29 00:32:09;;;;;;;1.67;1.10;;;21.00;73.90;;;;;;6244893;23;20008;-93
2022/06/29 00:34:38;;;;;;;1.65;1.30;;;20.90;74.00;;;;;;6193301;23;20008;-93
2022/06/29 00:37:04;;;;;;;1.05;1.00;;;20.90;74.10;;;;;;6244789;23;20008;-93
2022/06/29 00:39:33;;;;;;;2.25;1.30;;;20.90;74.20;;;;;;6244716;23;20045;-93
2022/06/29 00:41:59;;;;;;;1.33;1.23;;;20.90;74.70;;;;;;6244099;23;20015;-92
2022/06/29 00:44:26;;;;;;;3.53;1.20;;;20.80;74.80;;;;;;6243682;23;20015;-92
2022/06/29 00:47:00;;;;;;;2.25;1.35;;;20.80;75.00;;;;;;6244430;23;20004;-93
2022/06/29 00:49:27;;;;;;;1.48;1.38;;;20.80;75.20;;;;;;6243975;23;20009;-93
2022/06/29 00:52:14;;;;;;;1.20;1.05;;;20.70;75.40;;;;;;6244142;23;20107;-93
2022/06/29 00:54:47;;;;;;;2.13;1.17;;;20.70;75.40;;;;;;6217533;23;20012;-93
2022/06/29 00:57:17;;;;;;;2.53;1.20;;;20.70;75.50;;;;;;6218247;23;20004;-93
2022/06/29 00:59:49;;;;;;;1.73;1.27;;;20.70;75.60;;;;;;6244659;23;20008;-93
2022/06/29 01:02:20;;;;;;;2.53;1.50;;;20.70;75.70;;;;;;6244033;23;20091;-93
2022/06/29 01:04:47;;;;;;;2.28;1.50;;;20.70;75.80;;;;;;6218716;23;20443;-92
2022/06/29 01:07:15;;;;;;;1.30;1.17;;;20.70;75.80;;;;;;6219427;23;20385;-92
2022/06/29 01:09:43;;;;;;;2.80;1.48;;;20.70;75.90;;;;;;6246401;23;20008;-92
2022/06/29 01:12:09;;;;;;;2.78;1.52;;;20.70;76.00;;;;;;6220068;23;20000;-93
2022/06/29 01:14:35;;;;;;;2.45;1.25;;;20.70;76.00;;;;;;6194541;23;20004;-93
2022/06/29 01:17:02;;;;;;;2.60;1.40;;;20.70;76.10;;;;;;6246291;23;20541;-92
2022/06/29 01:19:28;;;;;;;2.35;1.38;;;20.70;76.40;;;;;;6194506;23;20004;-92
2022/06/29 01:21:58;;;;;;;2.58;1.50;;;20.60;76.70;;;;;;6219970;23;20440;-92
2022/06/29 01:24:24;;;;;;;2.25;1.23;;;20.60;77.10;;;;;;6246412;23;20012;-92
2022/06/29 01:26:50;;;;;;;2.22;1.48;;;20.50;77.40;;;;;;6246405;23;20582;-93
2022/06/29 01:29:16;;;;;;;1.95;1.67;;;20.50;77.80;;;;;;6219392;23;20037;-92
2022/06/29 01:31:43;;;;;;;2.15;1.40;;;20.50;77.80;;;;;;6219739;23;20090;-92
2022/06/29 01:34:09;;;;;;;2.65;1.30;;;20.50;77.90;;;;;;6219597;23;20015;-92
2022/06/29 01:36:35;;;;;;;2.17;1.42;;;20.50;78.10;;;;;;6219901;23;20004;-93
2022/06/29 01:39:01;;;;;;;1.63;1.20;;;20.50;78.10;;;;;;6219798;23;20012;-92
2022/06/29 01:41:27;;;;;;;3.83;1.50;;;20.50;78.20;;;;;;6219663;23;20103;-93
2022/06/29 01:43:53;;;;;;;2.47;1.35;;;20.40;78.60;;;;;;6246792;23;20368;-92
2022/06/29 01:46:19;;;;;;;1.60;1.50;;;20.40;78.80;;;;;;6219290;23;20027;-92
2022/06/29 01:48:44;;;;;;;1.40;1.30;;;20.40;79.00;;;;;;6245989;23;20135;-92
2022/06/29 01:51:10;;;;;;;3.75;1.50;;;20.40;79.10;;;;;;6245866;23;19996;-93
2022/06/29 01:53:36;;;;;;;2.88;1.27;;;20.30;79.10;;;;;;6218213;22;20012;-89
2022/06/29 01:56:02;;;;;;;1.48;1.30;;;20.30;79.20;;;;;;6213388;23;20046;-91
2022/06/29 01:58:28;;;;;;;2.67;1.48;;;20.30;79.40;;;;;;6194220;23;20495;-91
2022/06/29 02:00:54;;;;;;;1.65;1.55;;;20.30;79.70;;;;;;6245688;23;20296;-93
2022/06/29 02:03:20;;;;;;;1.92;1.30;;;20.20;79.80;;;;;;6244374;23;20028;-92
2022/06/29 02:05:46;;;;;;;3.92;1.50;;;20.20;79.90;;;;;;6245322;23;20560;-92
2022/06/29 02:08:12;;;;;;;2.15;1.40;;;20.20;79.90;;;;;;6219706;23;20027;-92
2022/06/29 02:10:38;;;;;;;3.22;1.60;;;20.20;80.00;;;;;;6217037;23;20004;-93
2022/06/29 02:13:04;;;;;;;5.15;1.48;;;20.20;80.10;;;;;;6219564;23;20008;-92
2022/06/29 02:15:30;;;;;;;1.73;1.60;;;20.10;80.30;;;;;;6246633;23;20012;-92
2022/06/29 02:17:56;;;;;;;1.70;1.58;;;20.10;80.40;;;;;;6220852;23;20032;-93
2022/06/29 02:20:22;;;;;;;2.28;1.73;;;20.10;80.70;;;;;;6247853;23;20035;-93
2022/06/29 02:22:48;;;;;;;2.75;1.73;;;20.10;80.90;;;;;;6221334;23;20463;-92
2022/06/29 02:25:14;;;;;;;2.75;1.77;;;20.10;80.90;;;;;;6222277;23;20022;-93
2022/06/29 02:27:45;;;;;;;1.92;1.65;;;20.00;80.80;;;;;;6223348;23;20007;-93
2022/06/29 02:30:12;;;;;;;2.80;1.40;;;20.00;81.10;;;;;;6224193;23;20035;-92
2022/06/29 02:35:23;;;;;;;3.42;1.90;;;20.00;81.40;;;;;;6245963;23;20012;-92
2022/06/29 02:37:48;;;;;;;3.03;1.85;;;20.00;81.70;;;;;;6247185;23;20054;-92
2022/06/29 02:40:14;;;;;;;3.05;1.95;;;20.00;81.80;;;;;;6246670;23;20004;-93
2022/06/29 02:42:40;;;;;;;2.47;2.08;;;19.90;81.90;;;;;;6246099;23;20037;-93
2022/06/29 02:45:06;;;;;;;3.45;1.80;;;19.90;82.10;;;;;;6194710;23;20067;-93
2022/06/29 02:47:32;;;;;;;2.90;1.88;;;19.90;82.20;;;;;;6244300;23;20012;-86
2022/06/29 02:49:58;;;;;;;2.05;1.90;;;19.90;82.50;;;;;;6212534;23;20091;-87
2022/06/29 02:52:24;;;;;;;3.08;1.70;;;19.90;82.60;;;;;;6238856;23;20087;-86
2022/06/29 02:54:50;;;;;;;2.78;1.90;;;19.90;82.70;;;;;;6238593;22;20400;-87
2022/06/29 02:57:16;;;;;;;4.25;1.92;;;19.80;82.70;;;;;;6239040;23;20053;-87
2022/06/29 02:59:42;;;;;;;2.03;1.73;;;19.90;83.00;;;;;;6238216;23;20073;-86
2022/06/29 03:02:08;;;;;;;2.63;2.05;;;19.80;83.10;;;;;;6210773;23;20016;-86
2022/06/29 03:04:34;;;;;;;2.17;1.70;;;19.80;83.00;;;;;;6186043;23;20011;-87
2022/06/29 03:07:00;;;;;;;1.90;1.80;;;19.80;83.30;;;;;;6238066;23;20012;-86
2022/06/29 03:09:27;;;;;;;3.40;2.13;;;19.80;83.30;;;;;;6186287;23;20013;-86
2022/06/29 03:11:53;;;;;;;2.58;1.95;;;19.80;83.40;;;;;;6241005;23;20011;-92
2022/06/29 03:14:18;;;;;;;3.42;2.30;;;19.80;83.60;;;;;;6245388;23;20024;-94
2022/06/29 03:16:44;;;;;;;5.00;2.00;;;19.70;83.90;;;;;;6242457;23;20404;-86
2022/06/29 03:19:10;;;;;;;2.30;2.10;;;19.70;84.00;;;;;;6211913;23;20111;-85
2022/06/29 03:21:36;;;;;;;3.53;2.28;;;19.70;84.10;;;;;;6186210;23;20261;-87
2022/06/29 03:24:03;;;;;;;3.88;2.20;;;19.70;84.30;;;;;;6212374;23;20555;-86
2022/06/29 03:26:30;;;;;;;3.13;2.22;;;19.70;84.30;;;;;;6211396;23;20012;-87
2022/06/29 03:28:56;;;;;;;2.97;2.20;;;19.80;84.20;;;;;;6237555;23;20012;-87
2022/06/29 03:31:23;;;;;;;2.53;1.95;;;19.70;84.30;;;;;;6238913;23;20122;-87
2022/06/29 03:33:49;;;;;;;2.97;2.05;;;19.70;84.30;;;;;;6187701;23;20004;-86
2022/06/29 03:36:15;;;;;;;2.60;2.08;;;19.70;84.30;;;;;;6212381;23;20013;-86
2022/06/29 03:38:41;;;;;;;2.22;2.03;;;19.70;84.50;;;;;;6211826;23;20103;-86
2022/06/29 03:41:07;;;;;;;3.45;2.22;;;19.80;84.50;;;;;;6238692;23;20056;-87
2022/06/29 03:43:33;;;;;;;6.55;2.22;;;19.80;84.60;;;;;;6212768;23;20441;-86
2022/06/29 03:45:59;;;;;;;3.67;2.60;;;19.80;84.60;;;;;;6211483;23;20091;-87
2022/06/29 03:48:25;;;;;;;3.30;2.20;;;19.80;84.60;;;;;;6238384;23;20004;-87
2022/06/29 03:50:50;;;;;;;3.20;2.08;;;19.80;84.70;;;;;;6210993;23;20008;-87
2022/06/29 03:53:19;;;;;;;2.25;2.05;;;19.80;85.00;;;;;;6238969;23;20004;-86
2022/06/29 03:55:45;;;;;;;3.83;2.30;;;19.90;84.70;;;;;;6186003;23;20084;-87
2022/06/29 03:58:11;;;;;;;2.67;1.98;;;19.90;84.70;;;;;;6241259;23;20032;-93
2022/06/29 04:00:37;;;;;;;3.03;2.10;;;19.90;84.60;;;;;;6245581;23;20446;-93
2022/06/29 04:03:03;;;;;;;2.00;1.90;;;20.00;84.80;;;;;;6218145;23;20012;-92
2022/06/29 04:05:29;;;;;;;4.43;2.65;;;20.00;84.40;;;;;;6217634;23;20101;-93
2022/06/29 04:07:55;;;;;;;3.58;2.22;;;20.10;84.50;;;;;;6217961;23;20004;-90
2022/06/29 04:10:20;;;;;;;3.90;2.40;;;20.10;84.30;;;;;;6189884;23;20008;-86
2022/06/29 04:12:46;;;;;;;2.35;2.10;;;20.10;83.80;;;;;;6210744;23;20008;-86
2022/06/29 04:15:12;;;;;;;2.40;1.90;;;20.20;83.60;;;;;;6247989;23;20004;-86
2022/06/29 04:17:38;;;;;;;4.45;2.10;;;20.20;83.60;;;;;;6212972;23;20054;-92
2022/06/29 04:20:05;;;;;;;3.35;2.15;;;20.20;83.70;;;;;;6244999;23;19996;-93
2022/06/29 04:22:31;;;;;;;3.40;2.33;;;20.20;83.60;;;;;;6218173;23;20087;-90
2022/06/29 04:24:59;;;;;;;2.40;2.17;;;20.30;83.80;;;;;;6244962;23;20036;-92
2022/06/29 04:27:25;;;;;;;2.63;1.98;;;20.30;84.40;;;;;;6245087;23;20020;-93
2022/06/29 04:29:51;;;;;;;3.80;2.25;;;20.40;83.60;;;;;;6217709;23;20012;-92
2022/06/29 04:32:17;;;;;;;4.82;1.85;;;20.40;83.40;;;;;;6245181;23;20012;-93
2022/06/29 04:34:43;;;;;;;2.92;2.17;;;20.40;83.40;;;;;;6244585;23;20011;-92
2022/06/29 04:37:09;;;;;;;2.80;2.47;;;20.40;83.20;;;;;;6244821;23;20008;-91
2022/06/29 04:39:35;;;;;;;3.00;1.90;;;20.40;83.20;;;;;;6244392;23;20004;-91
2022/06/29 04:42:01;;;;;;;2.70;2.08;;;20.40;83.30;;;;;;6217788;23;20086;-91
2022/06/29 04:44:27;;;;;;;1.98;1.88;;;20.40;83.30;;;;;;6217646;23;20063;-94
2022/06/29 04:46:54;;;;;;;4.00;2.30;;;20.50;83.10;;;;;;6244475;23;20011;-93
2022/06/29 04:49:20;;;;;;;2.97;2.63;;;20.50;83.40;;;;;;6244410;23;20001;-92
2022/06/29 04:51:46;;;;;;;2.85;2.00;;;20.50;83.40;;;;;;6244156;23;20080;-92
2022/06/29 04:54:12;;;;;;;3.78;2.35;;;20.60;83.20;;;;;;6244377;22;20343;-93
2022/06/29 04:56:38;;;;;;;4.80;2.05;;;20.60;82.80;;;;;;6244917;23;20091;-92
2022/06/29 04:59:03;;;;;;;3.05;2.15;;;20.60;82.70;;;;;;6217823;23;20042;-91
2022/06/29 05:01:30;;;;;;;3.72;2.38;;;20.60;82.80;;;;;;6193107;23;20010;-92
2022/06/29 05:03:59;;;;;;;2.45;2.25;;;20.70;82.90;;;;;;6216935;23;20044;-92
2022/06/29 05:06:31;;;;;;;3.75;2.20;;;20.70;82.80;;;;;;6244067;23;20032;-93
2022/06/29 05:08:57;;;;;;;4.50;2.17;;;20.70;83.00;;;;;;6217788;23;20008;-93
2022/06/29 05:11:23;;;;;;;4.32;2.58;;;20.70;82.30;;;;;;6243792;23;20000;-94
2022/06/29 05:13:50;;;;;;;2.80;2.17;;;20.70;82.40;;;;;;6244452;23;20078;-93
2022/06/29 05:16:16;;;;;;;2.75;2.38;;;20.70;82.50;;;;;;6243033;23;20012;-94
2022/06/29 05:18:42;;;;;;;2.50;2.13;;;20.80;82.40;;;;;;6216909;23;20014;-94
2022/06/29 05:21:09;;;;;;;1.92;1.73;;;20.80;82.30;;;;;;6243573;23;20012;-93
2022/06/29 05:23:35;;;;;;;5.53;2.17;;;20.90;81.90;;;;;;6243931;23;20087;-93
2022/06/29 05:26:01;;;;;;;3.90;2.70;;;21.00;81.70;;;;;;6216978;23;20025;-92
2022/06/29 05:28:27;;;;;;;4.20;2.15;;;21.10;81.60;;;;;;6243626;23;20020;-91
2022/06/29 05:30:53;;;;;;;3.42;2.50;;;21.30;80.80;;;;;;6217490;23;20016;-93
2022/06/29 05:33:20;;;;;;;4.32;2.25;;;21.40;79.80;;;;;;6244010;23;20111;-92
2022/06/29 05:35:46;;;;;;;2.47;2.03;;;21.50;79.70;;;;;;6244282;23;20008;-93
2022/06/29 05:38:11;;;;;;;2.60;2.10;;;21.60;79.40;;;;;;6243620;23;20012;-93
2022/06/29 05:40:37;;;;;;;3.83;2.20;;;21.70;79.20;;;;;;6243875;23;20494;-93
2022/06/29 05:43:04;;;;;;;4.95;2.15;;;21.80;78.80;;;;;;6217020;23;20008;-93
2022/06/29 05:45:30;;;;;;;2.33;2.13;;;21.90;78.00;;;;;;6217166;23;20008;-94
2022/06/29 05:47:56;;;;;;;2.42;2.08;;;21.90;77.40;;;;;;6216924;23;20008;-93
2022/06/29 05:50:23;;;;;;;3.40;2.00;;;21.90;77.50;;;;;;6217521;23;20015;-93
2022/06/29 05:52:50;;;;;;;1.80;1.70;;;22.00;77.50;;;;;;6245423;23;20008;-93
2022/06/29 05:55:17;;;;;;;2.33;1.85;;;22.10;76.50;;;;;;6245248;22;20016;-92
2022/06/29 05:57:43;;;;;;;4.68;1.92;;;22.20;76.30;;;;;;6244512;23;20303;-93
2022/06/29 06:00:10;;;;;;;1.80;1.70;;;22.20;74.40;;;;;;6245325;23;20015;-94
2022/06/29 06:02:39;;;;;;;1.95;1.42;;;22.20;72.50;;;;;;6218482;23;20031;-93
2022/06/29 06:05:06;;;;;;;2.83;1.35;;;22.30;72.40;;;;;;6245599;23;20008;-93
2022/06/29 06:07:32;;;;;;;5.75;1.70;;;22.50;72.70;;;;;;6245097;23;20016;-94
2022/06/29 06:09:58;;;;;;;1.63;1.42;;;22.50;71.00;;;;;;6245583;23;20008;-94
2022/06/29 06:12:24;;;;;;;3.65;1.38;;;22.60;71.50;;;;;;6245014;23;20075;-93
2022/06/29 06:14:50;;;;;;;1.90;1.33;;;22.70;72.10;;;;;;6245374;23;20050;-93
2022/06/29 06:17:15;;;;;;;1.48;1.10;;;22.80;70.90;;;;;;6218601;23;20012;-93
2022/06/29 06:19:42;;;;;;;1.30;1.20;;;22.90;70.40;;;;;;6218768;23;20016;-94
2022/06/29 06:22:08;;;;;;;2.25;1.50;;;23.00;70.00;;;;;;6218256;23;20016;-92
2022/06/29 06:24:33;;;;;;;1.65;1.30;;;23.10;69.50;;;;;;6218405;23;20054;-94
2022/06/29 06:26:59;;;;;;;2.85;1.23;;;23.20;68.40;;;;;;6245041;23;20572;-93
2022/06/29 06:29:25;;;;;;;2.70;1.15;;;23.20;67.90;;;;;;6218600;23;20004;-95
2022/06/29 06:31:51;;;;;;;5.65;2.10;;;23.20;67.20;;;;;;6245605;23;20023;-93
2022/06/29 06:34:17;;;;;;;6.13;1.65;;;23.30;68.30;;;;;;6246137;23;20012;-93
2022/06/29 06:36:43;;;;;;;2.53;1.55;;;23.40;66.90;;;;;;6245232;23;20493;-93
2022/06/29 06:39:09;;;;;;;6.22;1.38;;;23.40;67.50;;;;;;6246086;23;20031;-94
2022/06/29 06:41:41;;;;;;;4.20;1.15;;;23.50;65.90;;;;;;6244038;23;20040;-93
2022/06/29 06:44:07;;;;;;;2.55;1.23;;;23.50;66.20;;;;;;6217395;23;20066;-94
2022/06/29 06:46:34;;;;;;;4.45;1.10;;;23.70;64.20;;;;;;6243232;23;20014;-93
2022/06/29 06:49:03;;;;;;;1.27;1.15;;;23.80;65.80;;;;;;6218176;23;20000;-93
2022/06/29 06:51:29;;;;;;;4.97;1.08;;;23.90;64.10;;;;;;6245163;23;20012;-94
2022/06/29 06:53:55;;;;;;;1.42;0.80;;;23.90;64.00;;;;;;6216941;23;20347;-87
2022/06/29 06:56:20;;;;;;;2.28;1.00;;;24.00;63.90;;;;;;6249782;23;20004;-86
2022/06/29 06:58:46;;;;;;;1.63;0.80;;;24.10;63.40;;;;;;6216109;23;20535;-93
2022/06/29 07:01:12;;;;;;;3.35;1.15;;;24.30;62.30;;;;;;6246370;23;20087;-93
2022/06/29 07:03:38;;;;;;;5.40;1.13;;;24.30;63.40;;;;;;6246044;23;20012;-86
2022/06/29 07:06:09;;;;;;;23.65;12.65;;;24.40;61.20;;;;;;6244363;23;20016;-88
2022/06/29 07:08:37;;;;;;;1.95;1.45;;;24.40;59.50;;;;;;6219570;23;20679;-88
2022/06/29 07:11:04;;;;;;;4.10;2.20;;;24.40;60.30;;;;;;6247839;23;20083;-88
2022/06/29 07:13:33;;;;;;;3.95;2.00;;;24.30;60.80;;;;;;6239288;23;20028;-87
2022/06/29 07:16:03;;;;;;;10.32;6.47;;;24.40;59.90;;;;;;6240337;23;20302;-87
2022/06/29 07:18:34;;;;;;;1.95;1.10;;;24.40;59.60;;;;;;6216353;23;20008;-88
2022/06/29 07:21:01;;;;;;;3.30;0.80;;;24.50;59.40;;;;;;6216093;23;20015;-88
2022/06/29 07:23:29;;;;;;;2.22;0.90;;;24.60;59.30;;;;;;6242881;23;20011;-88
2022/06/29 07:25:56;;;;;;;2.53;0.77;;;24.60;56.20;;;;;;6244748;23;20008;-89
2022/06/29 07:28:22;;;;;;;3.15;0.98;;;24.50;55.10;;;;;;6240219;23;20012;-87
2022/06/29 07:30:48;;;;;;;1.13;0.63;;;24.40;57.10;;;;;;6247738;23;20014;-91
2022/06/29 07:33:14;;;;;;;1.65;0.70;;;24.30;53.80;;;;;;6248526;23;20023;-94
2022/06/29 07:35:40;;;;;;;1.20;0.70;;;24.20;56.10;;;;;;6215319;23;20008;-85
2022/06/29 07:38:07;;;;;;;1.48;0.98;;;24.20;56.60;;;;;;6239262;23;20456;-86
2022/06/29 07:40:34;;;;;;;2.80;0.70;;;24.10;57.20;;;;;;6238695;23;20036;-87
2022/06/29 07:43:00;;;;;;;3.53;2.30;;;24.20;57.70;;;;;;6237980;23;20012;-85
2022/06/29 07:45:25;;;;;;;1.02;0.88;;;24.30;57.10;;;;;;6238359;23;20027;-86
2022/06/29 07:47:52;;;;;;;1.90;1.00;;;24.40;56.60;;;;;;6210273;23;20091;-86
2022/06/29 07:50:18;;;;;;;3.50;1.35;;;24.40;55.90;;;;;;6210563;23;20075;-88
2022/06/29 07:52:44;;;;;;;1.33;0.82;;;24.50;56.10;;;;;;6237866;23;20011;-88
2022/06/29 07:55:10;;;;;;;1.75;0.70;;;24.60;55.10;;;;;;6237738;22;20023;-86
2022/06/29 07:57:36;;;;;;;1.30;0.90;;;24.60;54.60;;;;;;6211071;23;20083;-86
2022/06/29 08:00:04;;;;;;;2.15;0.85;;;24.60;55.30;;;;;;6242652;23;20016;-92
2022/06/29 08:02:37;;;;;;;;;;;24.60;56.00;;;;;;6245010;23;20342;-93
2022/06/29 08:05:03;;;;;;;2.28;1.10;;;24.70;53.30;;;;;;6244492;23;19910;-94
2022/06/29 08:07:29;;;;;;;4.43;1.05;;;24.70;55.20;;;;;;6244251;23;20436;-93
2022/06/29 08:09:55;;;;;;;0.60;0.57;;;24.70;55.70;;;;;;6239053;23;20016;-86
2022/06/29 08:12:21;;;;;;;1.85;1.02;;;24.70;52.70;;;;;;6237782;23;20012;-86
2022/06/29 08:14:47;;;;;;;1.13;1.00;;;24.70;54.40;;;;;;6217902;23;20490;-93
2022/06/29 08:17:16;;;;;;;1.75;0.80;;;24.70;53.90;;;;;;6245200;23;20067;-94
2022/06/29 08:19:42;;;;;;;1.27;0.70;;;24.70;54.20;;;;;;6217624;23;20464;-93
2022/06/29 08:22:08;;;;;;;0.70;0.70;;;24.90;53.70;;;;;;6244708;23;20028;-92
2022/06/29 08:24:34;;;;;;;3.22;0.80;;;25.10;54.90;;;;;;6217653;23;20008;-94
2022/06/29 08:27:00;;;;;;;1.10;0.88;;;25.20;52.90;;;;;;6244148;23;20012;-94
2022/06/29 08:29:27;;;;;;;1.75;1.00;;;25.50;53.30;;;;;;6244104;23;20004;-93
2022/06/29 08:31:53;;;;;;;5.43;1.05;;;25.70;52.40;;;;;;6245888;23;20004;-93
2022/06/29 08:34:39;;;;;;;3.65;2.17;;;25.90;52.10;;;;;;6243800;23;20015;-94
2022/06/29 08:37:05;;;;;;;1.80;1.10;;;26.00;51.10;;;;;;6243710;23;20431;-92
2022/06/29 08:39:31;;;;;;;3.50;2.60;;;26.20;48.80;;;;;;6245000;23;20011;-93
2022/06/29 08:42:01;;;;;;;2.55;1.17;;;26.20;49.10;;;;;;6217742;23;20023;-94
2022/06/29 08:44:29;;;;;;;2.40;0.85;;;26.30;49.00;;;;;;6244144;23;20035;-93
2022/06/29 08:46:55;;;;;;;2.95;1.00;;;26.30;48.20;;;;;;6244113;23;20008;-92
2022/06/29 08:49:24;;;;;;;1.25;0.93;;;26.20;47.40;;;;;;6244347;23;20008;-92
2022/06/29 08:51:51;;;;;;;4.75;0.98;;;26.20;48.20;;;;;;6244320;23;20004;-92
2022/06/29 08:54:19;;;;;;;2.75;0.60;;;26.10;47.10;;;;;;6238792;22;20012;-86
2022/06/29 08:56:46;;;;;;;2.03;0.90;;;26.00;46.80;;;;;;6210306;23;20065;-88
2022/06/29 08:59:16;;;;;;;1.10;0.70;;;26.00;46.60;;;;;;6209224;23;20016;-88
2022/06/29 09:01:42;;;;;;;0.98;0.80;;;26.00;48.00;;;;;;6210684;23;20346;-85
2022/06/29 09:04:08;;;;;;;3.03;0.90;;;25.90;46.80;;;;;;6210905;23;20039;-87
2022/06/29 09:06:34;;;;;;;3.83;0.88;;;25.90;47.30;;;;;;6210443;23;20099;-87
2022/06/29 09:09:03;;;;;;;4.82;1.50;;;25.90;47.00;;;;;;6209983;23;20015;-87
2022/06/29 09:11:31;;;;;;;2.58;1.55;;;25.90;47.60;;;;;;6210883;23;20399;-87
2022/06/29 09:14:18;;;;;;;2.72;1.55;;;26.00;47.80;;;;;;6243352;23;20452;-94
2022/06/29 09:16:55;;;;;;;3.30;0.70;;;26.20;47.80;;;;;;6218619;23;20008;-94
2022/06/29 09:19:26;;;;;;;2.13;0.93;;;26.30;48.60;;;;;;6245676;23;20004;-93
2022/06/29 09:21:54;;;;;;;3.38;1.13;;;26.50;46.20;;;;;;6216766;23;20036;-87
2022/06/29 09:24:23;;;;;;;0.90;0.77;;;26.60;46.90;;;;;;6221463;23;20012;-87
2022/06/29 09:26:58;;;;;;;0.70;0.70;;;26.70;46.00;;;;;;6239195;23;20065;-87
2022/06/29 09:29:33;;;;;;;1.83;1.10;;;26.70;45.30;;;;;;6248637;23;20012;-88
2022/06/29 09:32:05;;;;;;;0.60;0.60;;;26.70;45.80;;;;;;6239041;23;20198;-87
2022/06/29 09:34:35;;;;;;;1.98;0.75;;;26.80;45.40;;;;;;6239377;23;20266;-87
2022/06/29 09:37:03;;;;;;;2.00;0.70;;;26.80;45.30;;;;;;6214382;23;20341;-87
2022/06/29 09:39:46;;;;;;;1.48;0.80;;;26.80;45.20;;;;;;6243252;23;20012;-87
2022/06/29 09:42:15;;;;;;;1.38;0.70;;;26.80;44.70;;;;;;6243158;23;20012;-87
2022/06/29 09:44:42;;;;;;;1.27;0.65;;;26.80;45.20;;;;;;6252986;23;20079;-86
2022/06/29 09:47:15;;;;;;;1.17;0.70;;;26.60;42.70;;;;;;6211697;23;20517;-86
2022/06/29 09:49:46;;;;;;;1.92;0.68;;;26.40;42.10;;;;;;6238848;23;20456;-87
2022/06/29 09:52:14;;;;;;;1.75;0.80;;;26.40;42.40;;;;;;6210556;23;20023;-87
2022/06/29 09:54:46;;;;;;;2.22;0.80;;;26.40;42.40;;;;;;6238495;22;20008;-88
2022/06/29 09:57:13;;;;;;;2.60;0.90;;;26.30;41.80;;;;;;6239183;23;20016;-88
2022/06/29 10:02:45;;;;;;;2.15;0.63;;;26.50;42.10;;;;;;6211565;23;20008;-86
2022/06/29 10:05:15;;;;;;;1.02;0.45;;;26.50;41.70;;;;;;6239379;23;20109;-87
2022/06/29 10:07:43;;;;;;;3.40;0.88;;;26.50;41.70;;;;;;6238659;23;20016;-87
2022/06/29 10:10:16;;;;;;;2.63;0.80;;;26.40;42.40;;;;;;6211486;23;20004;-87
2022/06/29 10:16:00;;;;;;;1.45;0.70;;;26.50;42.40;;;;;;6239369;23;20019;-87
2022/06/29 10:18:29;;;;;;;1.35;0.80;;;26.40;43.20;;;;;;6211971;23;20004;-86
2022/06/29 10:20:57;;;;;;;1.98;0.68;;;26.40;42.50;;;;;;6238793;23;20087;-87
2022/06/29 10:23:50;;;;;;;1.10;0.77;;;26.30;42.70;;;;;;6238458;23;20514;-88
2022/06/29 10:26:37;;;;;;;3.17;2.00;;;26.30;43.20;;;;;;6238649;23;20012;-86
2022/06/29 10:29:06;;;;;;;3.53;1.20;;;26.30;42.90;;;;;;6238789;23;20015;-88
2022/06/29 10:31:54;;;;;;;4.95;1.13;;;26.30;43.90;;;;;;6212692;23;20471;-87
2022/06/29 10:34:32;;;;;;;3.10;1.10;;;26.20;43.80;;;;;;6210804;23;20452;-87
2022/06/29 10:37:08;;;;;;;1.58;1.15;;;26.20;44.00;;;;;;6249052;23;20014;-88
2022/06/29 10:39:49;;;;;;;2.60;1.10;;;26.20;42.80;;;;;;6238411;23;20103;-87
2022/06/29 10:45:17;;;;;;;0.93;0.70;;;26.40;44.10;;;;;;6249664;23;20065;-89
2022/06/29 10:47:55;;;;;;;1.00;0.70;;;26.40;42.20;;;;;;6239353;23;20016;-88
2022/06/29 10:50:31;;;;;;;0.93;0.80;;;26.50;42.90;;;;;;6248879;23;20012;-86
2022/06/29 10:53:11;;;;;;;10.20;6.43;;;26.50;42.80;;;;;;6248444;23;20008;-87
2022/06/29 10:55:43;;;;;;;1.38;1.17;;;26.70;42.60;;;;;;6239193;22;20069;-88
2022/06/29 10:58:10;;;;;;;4.05;0.90;;;26.70;41.60;;;;;;6211420;23;20016;-87
2022/06/29 11:00:41;;;;;;;1.05;0.70;;;26.90;42.80;;;;;;6238856;23;20094;-87
2022/06/29 11:03:32;;;;;;;2.75;0.80;;;27.00;41.90;;;;;;6238328;23;20016;-86
2022/06/29 11:16:59;;;;;;;5.22;1.08;;;27.90;40.10;;;;;;6213713;23;20016;-89
2022/06/29 11:19:31;;;;;;;1.92;0.82;;;27.80;38.10;;;;;;6241159;23;20066;-88
2022/06/29 11:22:11;;;;;;;0.68;0.60;;;27.50;39.50;;;;;;6239972;23;20211;-89
2022/06/29 11:25:02;;;;;;;1.13;0.70;;;27.50;41.30;;;;;;6250389;23;20090;-94
2022/06/29 11:27:29;;;;;;;5.43;1.00;;;27.30;40.70;;;;;;6246984;23;20008;-94
2022/06/29 11:29:55;;;;;;;3.63;0.95;;;27.20;42.70;;;;;;6248291;23;20011;-93
2022/06/29 11:32:32;;;;;;;1.20;0.70;;;27.20;43.00;;;;;;6245319;23;20340;-92
2022/06/29 11:35:01;;;;;;;1.58;0.80;;;27.20;42.60;;;;;;6220356;23;20027;-94
2022/06/29 11:37:27;;;;;;;2.80;1.05;;;27.30;41.80;;;;;;6247373;23;20079;-94
2022/06/29 11:39:53;;;;;;;1.77;0.70;;;27.30;42.30;;;;;;6246495;23;20048;-94
2022/06/29 11:45:17;;;;;;;1.58;0.85;;;27.30;43.30;;;;;;6223961;23;20008;-93
2022/06/29 11:47:54;;;;;;;1.02;0.73;;;27.20;42.60;;;;;;6246215;23;20621;-94
2022/06/29 11:50:23;;;;;;;2.35;1.10;;;27.20;43.30;;;;;;6217968;23;20004;-93
2022/06/29 11:52:50;;;;;;;2.20;0.80;;;27.20;42.80;;;;;;6218026;23;20008;-93
2022/06/29 11:55:39;;;;;;;1.17;0.90;;;27.20;42.70;;;;;;6192702;23;20103;-93
2022/06/29 11:58:08;;;;;;;5.63;0.98;;;27.10;43.10;;;;;;6244598;23;20424;-92
2022/06/29 12:00:39;;;;;;;0.80;0.80;;;27.10;43.10;;;;;;6218737;23;20035;-94
2022/06/29 12:03:07;;;;;;;0.88;0.60;;;27.00;43.20;;;;;;6221612;23;20004;-93
2022/06/29 12:05:33;;;;;;;1.23;0.80;;;27.10;44.70;;;;;;6250981;23;20015;-94
2022/06/29 12:07:59;;;;;;;2.83;1.60;;;27.10;43.50;;;;;;6251208;23;20004;-95
2022/06/29 12:10:28;;;;;;;1.48;0.80;;;27.20;43.10;;;;;;6223024;23;20036;-94
2022/06/29 12:12:55;;;;;;;2.03;0.60;;;27.20;43.70;;;;;;6224792;23;20000;-94
2022/06/29 12:15:21;;;;;;;0.60;0.60;;;27.30;42.90;;;;;;6224432;23;20003;-95
2022/06/29 12:17:52;;;;;;;1.10;0.70;;;27.50;41.90;;;;;;6220164;23;20032;-94
2022/06/29 12:20:18;;;;;;;1.90;0.70;;;27.60;42.30;;;;;;6220798;23;20487;-94
2022/06/29 12:22:44;;;;;;;0.70;0.45;;;27.60;41.50;;;;;;6220000;23;20036;-92
2022/06/29 12:25:10;;;;;;;4.85;0.85;;;27.50;41.70;;;;;;6223989;23;20004;-95
2022/06/29 12:27:37;;;;;;;1.08;0.50;;;27.60;41.50;;;;;;6247057;23;20008;-96
2022/06/29 12:30:15;;;;;;;1.35;0.75;;;27.60;41.20;;;;;;6220554;23;20479;-87
2022/06/29 12:32:41;;;;;;;3.75;0.98;;;27.50;41.50;;;;;;6238033;23;20008;-87
2022/06/29 12:35:07;;;;;;;2.53;0.80;;;27.50;41.80;;;;;;6239287;23;20034;-89
2022/06/29 12:37:33;;;;;;;1.92;0.70;;;27.40;42.00;;;;;;6212314;23;20094;-90
2022/06/29 12:39:59;;;;;;;1.85;0.73;;;27.40;41.50;;;;;;6212088;23;20093;-88
2022/06/29 12:42:25;;;;;;;4.80;0.80;;;27.50;42.30;;;;;;6211862;23;20012;-87
2022/06/29 12:44:51;;;;;;;0.65;0.65;;;27.40;40.40;;;;;;6239399;23;20012;-88
2022/06/29 12:47:17;;;;;;;1.83;0.73;;;27.50;40.80;;;;;;6239458;23;20466;-88
2022/06/29 12:49:43;;;;;;;3.40;0.80;;;27.50;39.90;;;;;;6238641;23;20071;-90
2022/06/29 12:52:10;;;;;;;3.63;1.00;;;27.50;40.30;;;;;;6212073;23;20008;-88
2022/06/29 12:54:36;;;;;;;2.92;0.80;;;27.40;40.80;;;;;;6238453;22;20012;-87
2022/06/29 12:57:02;;;;;;;1.17;0.70;;;27.50;41.80;;;;;;6211955;23;20012;-87
2022/06/29 12:59:28;;;;;;;1.88;0.70;;;27.40;42.10;;;;;;6222449;23;20015;-88
2022/06/29 13:01:58;;;;;;;1.67;0.65;;;27.50;42.70;;;;;;6240459;23;20578;-86
2022/06/29 13:04:26;;;;;;;2.05;0.70;;;27.60;42.50;;;;;;6212805;23;20043;-89
2022/06/29 13:06:52;;;;;;;0.88;0.70;;;27.60;42.00;;;;;;6240645;23;20020;-86
2022/06/29 13:09:18;;;;;;;0.90;0.70;;;27.60;42.00;;;;;;6240446;23;20095;-87
2022/06/29 13:11:46;;;;;;;1.35;0.77;;;27.60;42.20;;;;;;6239789;23;20040;-87
2022/06/29 13:14:15;;;;;;;0.63;0.60;;;27.60;42.10;;;;;;6213167;23;20008;-88
2022/06/29 13:16:42;;;;;;;2.83;0.55;;;27.70;41.30;;;;;;6240208;23;20008;-90